createdAt,value
2023-04-17T00:01:56.173Z,4.90
2023-04-17T00:04:23.683Z,4.80
2023-04-17T00:06:54.157Z,4.90
2023-04-17T00:09:21.221Z,4.90
2023-04-17T00:11:48.302Z,4.80
2023-04-17T00:14:15.314Z,4.80
2023-04-17T00:16:42.223Z,4.80
2023-04-17T00:19:09.513Z,4.80
2023-04-17T00:21:36.705Z,4.80
2023-04-17T00:24:03.993Z,4.80
2023-04-17T00:26:32.728Z,4.80
2023-04-17T00:28:59.474Z,4.80
2023-04-17T00:31:26.767Z,4.80
2023-04-17T00:33:54.614Z,4.70
2023-04-17T00:36:21.707Z,4.80
2023-04-17T00:38:48.727Z,4.70
2023-04-17T00:41:15.962Z,4.80
2023-04-17T00:43:43.300Z,4.70
2023-04-17T00:46:10.749Z,4.70
2023-04-17T00:48:38.349Z,4.70
2023-04-17T00:51:05.800Z,4.70
2023-04-17T00:53:33.848Z,4.80
2023-04-17T00:56:02.295Z,4.70
2023-04-17T00:58:32.466Z,4.70
2023-04-17T01:00:59.920Z,4.80
2023-04-17T01:03:30.055Z,4.70
2023-04-17T01:06:00.167Z,4.70
2023-04-17T01:08:27.087Z,4.60
2023-04-17T01:10:53.949Z,4.60
2023-04-17T01:13:20.795Z,4.70
2023-04-17T01:15:47.690Z,4.60
2023-04-17T01:18:14.488Z,4.70
2023-04-17T01:20:41.276Z,4.70
2023-04-17T01:23:08.295Z,4.70
2023-04-17T01:25:37.300Z,4.70
2023-04-17T01:28:04.298Z,4.70
2023-04-17T01:30:31.130Z,4.60
2023-04-17T01:33:02.680Z,4.70
2023-04-17T01:35:29.468Z,4.70
2023-04-17T01:37:58.525Z,4.70
2023-04-17T01:40:25.331Z,4.70
2023-04-17T01:42:54.539Z,4.60
2023-04-17T01:45:22.876Z,4.70
2023-04-17T01:47:50.713Z,4.70
2023-04-17T01:50:17.606Z,4.60
2023-04-17T01:52:47.934Z,4.60
2023-04-17T01:55:17.081Z,4.60
2023-04-17T01:57:43.853Z,4.60
2023-04-17T02:00:11.207Z,4.60
2023-04-17T02:02:46.003Z,4.60
2023-04-17T02:05:13.329Z,4.60
2023-04-17T02:07:40.457Z,4.60
2023-04-17T02:10:10.872Z,4.60
2023-04-17T02:12:37.805Z,4.60
2023-04-17T02:15:07.802Z,4.60
2023-04-17T02:17:34.925Z,4.50
2023-04-17T02:20:02.378Z,4.50
2023-04-17T02:22:31.599Z,4.40
2023-04-17T02:24:58.683Z,4.40
2023-04-17T02:27:28.579Z,4.40
2023-04-17T02:29:57.787Z,4.50
2023-04-17T02:32:27.156Z,4.40
2023-04-17T02:34:54.617Z,4.40
2023-04-17T02:37:21.799Z,4.20
2023-04-17T02:39:53.556Z,4.30
2023-04-17T02:42:23.254Z,4.40
2023-04-17T02:44:50.022Z,4.30
2023-04-17T02:47:17.542Z,4.40
2023-04-17T02:49:44.646Z,4.30
2023-04-17T02:52:13.990Z,4.30
2023-04-17T02:54:41.144Z,4.30
2023-04-17T02:57:09.243Z,4.30
2023-04-17T02:59:36.483Z,4.20
2023-04-17T03:02:04.535Z,4.30
2023-04-17T03:04:34.530Z,4.20
2023-04-17T03:07:01.484Z,4.20
2023-04-17T03:09:28.297Z,4.20
2023-04-17T03:11:55.768Z,4.30
2023-04-17T03:14:22.998Z,4.20
2023-04-17T03:16:49.806Z,4.20
2023-04-17T03:19:23.010Z,4.30
2023-04-17T03:21:50.967Z,4.20
2023-04-17T03:24:18.287Z,4.20
2023-04-17T03:26:45.172Z,4.30
2023-04-17T03:29:18.136Z,4.20
2023-04-17T03:31:45.372Z,4.20
2023-04-17T03:34:12.423Z,4.20
2023-04-17T03:36:40.472Z,4.20
2023-04-17T03:39:12.077Z,4.20
2023-04-17T03:41:39.211Z,4.20
2023-04-17T03:44:06.573Z,4.30
2023-04-17T03:46:36.408Z,4.20
2023-04-17T03:49:10.922Z,4.30
2023-04-17T03:51:39.029Z,4.30
2023-04-17T03:54:12.396Z,4.30
2023-04-17T03:56:42.422Z,4.30
2023-04-17T03:59:10.074Z,4.20
2023-04-17T04:01:44.700Z,4.20
2023-04-17T04:04:26.584Z,4.10
2023-04-17T04:07:03.955Z,4.10
2023-04-17T04:09:31.478Z,4.00
2023-04-17T04:11:59.531Z,4.00
2023-04-17T04:14:27.860Z,4.00
2023-04-17T04:16:57.064Z,4.00
2023-04-17T04:19:25.678Z,3.90
2023-04-17T04:21:53.624Z,3.80
2023-04-17T04:24:23.964Z,3.80
2023-04-17T04:26:53.728Z,3.70
2023-04-17T04:29:25.811Z,3.70
2023-04-17T04:32:00.865Z,3.70
2023-04-17T04:34:37.651Z,3.60
2023-04-17T04:37:06.389Z,3.60
2023-04-17T04:39:42.180Z,3.60
2023-04-17T04:42:13.247Z,3.60
2023-04-17T04:44:56.402Z,3.60
2023-04-17T04:47:26.891Z,3.60
2023-04-17T04:49:56.901Z,3.70
2023-04-17T04:52:24.354Z,3.70
2023-04-17T04:54:55.062Z,3.70
2023-04-17T04:57:22.711Z,3.80
2023-04-17T04:59:54.036Z,3.80
2023-04-17T05:02:34.667Z,3.80
2023-04-17T05:05:05.068Z,3.80
2023-04-17T05:07:36.216Z,3.80
2023-04-17T05:10:06.677Z,3.80
2023-04-17T05:12:36.721Z,3.90
2023-04-17T05:15:07.150Z,3.90
2023-04-17T05:17:34.100Z,4.00
2023-04-17T05:20:02.108Z,4.10
2023-04-17T05:22:31.947Z,4.10
2023-04-17T05:25:07.024Z,4.10
2023-04-17T05:27:36.530Z,4.10
2023-04-17T05:30:03.953Z,4.20
2023-04-17T05:32:32.018Z,4.30
2023-04-17T05:35:05.509Z,4.30
2023-04-17T05:37:32.809Z,4.20
2023-04-17T05:40:01.313Z,4.40
2023-04-17T05:42:29.984Z,4.30
2023-04-17T05:44:58.593Z,4.30
2023-04-17T05:47:28.917Z,4.40
2023-04-17T05:50:00.229Z,4.40
2023-04-17T05:52:30.062Z,4.40
2023-04-17T05:54:57.422Z,4.50
2023-04-17T05:57:28.664Z,4.60
2023-04-17T05:59:55.551Z,4.70
2023-04-17T06:02:25.420Z,4.70
2023-04-17T06:04:52.977Z,4.70
2023-04-17T06:07:20.233Z,4.70
2023-04-17T06:09:47.478Z,4.80
2023-04-17T06:12:16.486Z,4.90
2023-04-17T06:14:44.580Z,4.90
2023-04-17T06:17:16.642Z,4.90
2023-04-17T06:19:43.485Z,4.90
2023-04-17T06:22:10.338Z,4.90
2023-04-17T06:24:39.744Z,5.00
2023-04-17T06:27:06.894Z,5.10
2023-04-17T06:29:35.917Z,5.10
2023-04-17T06:32:03.870Z,5.20
2023-04-17T06:34:31.154Z,5.30
2023-04-17T06:37:00.961Z,5.40
2023-04-17T06:39:27.980Z,5.40
2023-04-17T06:41:56.967Z,5.50
2023-04-17T06:44:28.173Z,5.60
2023-04-17T06:46:59.453Z,5.80
2023-04-17T06:49:27.349Z,5.70
2023-04-17T06:51:54.170Z,5.80
2023-04-17T06:54:21.111Z,5.80
2023-04-17T06:56:48.252Z,5.70
2023-04-17T06:59:15.570Z,5.80
2023-04-17T07:01:44.861Z,5.90
2023-04-17T07:04:12.377Z,6.10
2023-04-17T07:06:44.163Z,6.30
2023-04-17T07:09:11.184Z,6.20
2023-04-17T07:11:40.856Z,6.20
2023-04-17T07:14:08.049Z,6.30
2023-04-17T07:16:37.470Z,6.40
2023-04-17T07:19:04.374Z,6.40
2023-04-17T07:21:32.606Z,6.30
2023-04-17T07:24:00.421Z,6.40
2023-04-17T07:26:28.469Z,6.40
2023-04-17T07:28:55.621Z,6.30
2023-04-17T07:31:22.790Z,6.50
2023-04-17T07:33:51.887Z,6.70
2023-04-17T07:36:19.023Z,6.90
2023-04-17T07:38:46.227Z,7.10
2023-04-17T07:41:13.329Z,7.10
2023-04-17T07:43:41.366Z,7.20
2023-04-17T07:46:08.542Z,7.30
2023-04-17T07:48:35.792Z,7.40
2023-04-17T07:51:02.947Z,7.40
2023-04-17T07:53:30.014Z,7.50
2023-04-17T07:55:59.122Z,7.50
2023-04-17T07:58:27.059Z,7.50
2023-04-17T08:00:55.434Z,7.80
2023-04-17T08:03:24.612Z,7.80
2023-04-17T08:05:54.682Z,7.90
2023-04-17T08:08:24.246Z,8.00
2023-04-17T08:10:53.526Z,8.30
2023-04-17T08:13:20.393Z,8.60
2023-04-17T08:15:47.743Z,8.70
2023-04-17T08:18:14.636Z,8.90
2023-04-17T08:20:44.075Z,8.80
2023-04-17T08:23:10.963Z,9.00
2023-04-17T08:25:38.211Z,9.20
2023-04-17T08:28:05.835Z,9.00
2023-04-17T08:30:35.189Z,8.80
2023-04-17T08:33:02.965Z,8.70
2023-04-17T08:35:30.143Z,8.80
2023-04-17T08:37:58.861Z,8.70
2023-04-17T08:40:26.516Z,8.50
2023-04-17T08:42:55.135Z,8.50
2023-04-17T08:45:26.116Z,8.60
2023-04-17T08:47:55.372Z,8.60
2023-04-17T08:50:22.720Z,8.40
2023-04-17T08:52:52.034Z,8.50
2023-04-17T08:55:25.400Z,8.40
2023-04-17T08:58:08.600Z,8.10
2023-04-17T09:00:38.069Z,8.00
2023-04-17T09:03:15.965Z,7.80
2023-04-17T09:05:46.256Z,7.70
2023-04-17T09:08:17.493Z,7.70
2023-04-17T09:10:48.546Z,7.70
2023-04-17T09:13:17.423Z,7.70
2023-04-17T09:16:03.346Z,7.80
2023-04-17T09:18:31.585Z,7.80
2023-04-17T09:21:00.495Z,8.10
2023-04-17T09:23:30.088Z,8.50
2023-04-17T09:26:14.959Z,9.10
2023-04-17T09:29:00.146Z,9.60
2023-04-17T09:31:32.304Z,10.00
2023-04-17T09:34:00.502Z,10.20
2023-04-17T09:36:30.627Z,9.90
2023-04-17T09:39:02.455Z,9.80
2023-04-17T09:41:37.018Z,10.10
2023-04-17T09:44:06.616Z,10.40
2023-04-17T09:46:42.983Z,10.10
2023-04-17T09:49:19.086Z,9.80
2023-04-17T09:51:47.698Z,9.30
2023-04-17T09:54:16.052Z,9.10
2023-04-17T09:56:44.294Z,8.90
2023-04-17T09:59:12.592Z,9.10
2023-04-17T10:01:41.036Z,9.30
2023-04-17T10:04:08.826Z,9.50
2023-04-17T10:06:37.005Z,9.60
2023-04-17T10:09:05.083Z,9.80
2023-04-17T10:11:37.953Z,9.80
2023-04-17T10:14:17.128Z,9.50
2023-04-17T10:16:48.754Z,9.50
2023-04-17T10:19:31.401Z,9.60
2023-04-17T10:22:20.076Z,10.00
2023-04-17T10:25:16.907Z,10.10
2023-04-17T10:27:49.529Z,9.70
2023-04-17T10:32:48.628Z,9.60
2023-04-17T10:35:19.615Z,9.80
2023-04-17T10:37:50.602Z,10.20
2023-04-17T10:40:24.549Z,10.60
2023-04-17T10:43:11.902Z,10.90
2023-04-17T10:46:03.019Z,11.00
2023-04-17T10:48:46.453Z,10.90
2023-04-17T10:51:27.127Z,10.80
2023-04-17T10:53:59.224Z,10.70
2023-04-17T10:56:39.768Z,10.60
2023-04-17T10:59:11.913Z,10.80
2023-04-17T11:01:49.901Z,11.20
2023-04-17T11:04:30.211Z,11.30
2023-04-17T11:07:00.450Z,11.30
2023-04-17T11:09:30.026Z,11.50
2023-04-17T11:12:06.806Z,11.70
2023-04-17T11:14:33.915Z,12.00
2023-04-17T11:17:02.534Z,12.00
2023-04-17T11:19:34.038Z,12.30
2023-04-17T11:22:03.102Z,12.10
2023-04-17T11:24:32.970Z,11.70
2023-04-17T11:27:02.407Z,11.40
2023-04-17T11:29:31.343Z,11.30
2023-04-17T11:32:03.611Z,11.20
2023-04-17T11:34:30.744Z,11.00
2023-04-17T11:37:01.869Z,11.80
2023-04-17T11:39:36.793Z,12.30
2023-04-17T11:42:04.252Z,12.30
2023-04-17T11:44:31.655Z,11.90
2023-04-17T11:46:59.387Z,11.80
2023-04-17T11:49:29.549Z,11.50
2023-04-17T11:51:59.270Z,11.50
2023-04-17T11:54:37.455Z,11.70
2023-04-17T11:57:13.414Z,11.60
2023-04-17T11:59:42.608Z,11.80
2023-04-17T12:02:12.731Z,11.80
2023-04-17T12:04:40.602Z,11.90
2023-04-17T12:07:26.473Z,11.50
2023-04-17T12:09:58.285Z,10.90
2023-04-17T12:12:26.952Z,10.50
2023-04-17T12:14:53.921Z,10.20
2023-04-17T12:17:24.119Z,9.90
2023-04-17T12:19:51.691Z,9.80
2023-04-17T12:22:19.033Z,9.50
2023-04-17T12:24:48.338Z,9.30
2023-04-17T12:27:18.304Z,9.30
2023-04-17T12:29:45.620Z,9.30
2023-04-17T12:32:16.563Z,9.40
2023-04-17T12:34:45.947Z,9.60
2023-04-17T12:37:12.983Z,9.60
2023-04-17T12:39:42.496Z,9.60
2023-04-17T12:42:11.865Z,9.80
2023-04-17T12:44:39.862Z,9.80
2023-04-17T12:47:07.182Z,9.90
2023-04-17T12:49:34.248Z,10.00
2023-04-17T12:52:03.698Z,10.20
2023-04-17T12:54:34.864Z,10.20
2023-04-17T12:57:02.616Z,10.40
2023-04-17T12:59:32.574Z,10.40
2023-04-17T13:02:02.667Z,10.40
2023-04-17T13:04:29.776Z,10.70
2023-04-17T13:06:56.777Z,10.80
2023-04-17T13:09:25.705Z,11.00
2023-04-17T13:11:54.694Z,10.80
2023-04-17T13:14:21.612Z,10.40
2023-04-17T13:16:50.629Z,10.10
2023-04-17T13:19:20.177Z,10.00
2023-04-17T13:21:51.846Z,9.90
2023-04-17T13:24:18.932Z,10.00
2023-04-17T13:26:48.131Z,9.90
2023-04-17T13:29:17.773Z,9.90
2023-04-17T13:31:46.401Z,10.00
2023-04-17T13:34:13.750Z,10.10
2023-04-17T13:36:42.356Z,10.30
2023-04-17T13:39:10.108Z,10.30
2023-04-17T13:41:40.251Z,10.30
2023-04-17T13:44:07.502Z,10.50
2023-04-17T13:46:35.095Z,10.70
2023-04-17T13:49:02.341Z,11.00
2023-04-17T13:51:29.546Z,11.20
2023-04-17T13:53:59.757Z,11.50
2023-04-17T13:56:31.040Z,11.50
2023-04-17T13:58:58.321Z,11.50
2023-04-17T14:01:25.730Z,11.40
2023-04-17T14:03:53.126Z,11.40
2023-04-17T14:06:23.408Z,11.30
2023-04-17T14:08:52.798Z,11.20
2023-04-17T14:11:19.683Z,11.50
2023-04-17T14:13:48.797Z,11.80
2023-04-17T14:16:15.816Z,12.10
2023-04-17T14:18:42.690Z,12.30
2023-04-17T14:21:09.823Z,12.20
2023-04-17T14:23:36.882Z,12.20
2023-04-17T14:26:03.765Z,12.10
2023-04-17T14:28:30.821Z,12.00
2023-04-17T14:30:59.090Z,11.70
2023-04-17T14:33:25.950Z,11.40
2023-04-17T14:35:59.540Z,11.40
2023-04-17T14:38:26.860Z,11.40
2023-04-17T14:40:54.304Z,11.40
2023-04-17T14:43:21.763Z,11.30
2023-04-17T14:45:51.503Z,11.30
2023-04-17T14:48:20.534Z,11.20
2023-04-17T14:50:50.074Z,11.10
2023-04-17T14:53:19.474Z,10.90
2023-04-17T14:55:48.165Z,10.90
2023-04-17T14:58:15.092Z,10.90
2023-04-17T15:00:41.962Z,11.00
2023-04-17T15:03:09.478Z,11.00
2023-04-17T15:05:36.544Z,10.80
2023-04-17T15:08:03.621Z,10.80
2023-04-17T15:10:40.528Z,10.70
2023-04-17T15:13:15.046Z,10.80
2023-04-17T15:15:45.523Z,10.80
2023-04-17T15:18:15.218Z,10.90
2023-04-17T15:20:43.670Z,11.00
2023-04-17T15:23:10.580Z,11.20
2023-04-17T15:25:40.141Z,11.20
2023-04-17T15:28:12.615Z,11.50
2023-04-17T15:30:39.742Z,11.30
2023-04-17T15:33:10.039Z,11.10
2023-04-17T15:35:37.723Z,10.90
2023-04-17T15:38:06.245Z,10.70
2023-04-17T15:40:34.020Z,10.40
2023-04-17T15:43:01.814Z,10.30
2023-04-17T15:45:28.933Z,10.40
2023-04-17T15:47:58.927Z,10.30
2023-04-17T15:50:26.150Z,10.40
2023-04-17T15:52:53.561Z,10.30
2023-04-17T15:55:22.925Z,10.30
2023-04-17T15:57:50.164Z,10.30
2023-04-17T16:00:21.444Z,10.40
2023-04-17T16:02:49.470Z,10.40
2023-04-17T16:05:18.212Z,10.40
2023-04-17T16:07:45.579Z,10.50
2023-04-17T16:10:15.725Z,10.40
2023-04-17T16:12:46.973Z,10.40
2023-04-17T16:15:17.476Z,10.30
2023-04-17T16:17:45.928Z,10.20
2023-04-17T16:20:16.716Z,10.00
2023-04-17T16:22:45.914Z,10.00
2023-04-17T16:25:13.223Z,10.00
2023-04-17T16:27:40.675Z,10.00
2023-04-17T16:30:09.188Z,10.10
2023-04-17T16:32:36.177Z,10.10
2023-04-17T16:35:03.100Z,10.30
2023-04-17T16:37:30.251Z,10.20
2023-04-17T16:39:57.714Z,10.30
2023-04-17T16:42:24.683Z,10.20
2023-04-17T16:44:52.061Z,10.00
2023-04-17T16:47:19.356Z,10.00
2023-04-17T16:49:48.908Z,9.90
2023-04-17T16:52:17.644Z,9.80
2023-04-17T16:54:45.868Z,9.70
2023-04-17T16:57:13.157Z,9.60
2023-04-17T16:59:40.074Z,9.40
2023-04-17T17:02:07.349Z,9.30
2023-04-17T17:04:35.584Z,9.30
2023-04-17T17:07:05.349Z,9.20
2023-04-17T17:09:32.255Z,9.30
2023-04-17T17:12:00.243Z,9.20
2023-04-17T17:14:27.400Z,9.10
2023-04-17T17:16:54.358Z,9.10
2023-04-17T17:19:21.317Z,9.10
2023-04-17T17:21:48.431Z,9.00
2023-04-17T17:24:18.079Z,9.00
2023-04-17T17:26:45.158Z,8.90
2023-04-17T17:29:12.401Z,8.90
2023-04-17T17:31:39.667Z,8.90
2023-04-17T17:34:22.393Z,9.00
2023-04-17T17:36:54.048Z,8.90
2023-04-17T17:39:22.282Z,9.00
2023-04-17T17:42:03.872Z,8.80
2023-04-17T17:44:32.442Z,8.90
2023-04-17T17:46:59.211Z,8.90
2023-04-17T17:49:27.116Z,8.80
2023-04-17T17:51:54.570Z,8.80
2023-04-17T17:54:21.639Z,8.90
2023-04-17T17:56:51.045Z,8.80
2023-04-17T17:59:19.563Z,8.70
2023-04-17T18:01:47.666Z,8.70
2023-04-17T18:04:14.758Z,8.70
2023-04-17T18:06:43.561Z,8.60
2023-04-17T18:09:13.820Z,8.60
2023-04-17T18:11:41.409Z,8.50
2023-04-17T18:14:08.904Z,8.50
2023-04-17T18:16:37.290Z,8.30
2023-04-17T18:19:05.664Z,8.30
2023-04-17T18:21:32.701Z,8.30
2023-04-17T18:24:03.737Z,8.30
2023-04-17T18:26:32.040Z,8.20
2023-04-17T18:29:01.892Z,8.20
2023-04-17T18:31:28.931Z,8.10
2023-04-17T18:33:58.073Z,8.10
2023-04-17T18:36:34.824Z,8.00
2023-04-17T18:39:02.084Z,8.00
2023-04-17T18:41:30.775Z,8.00
2023-04-17T18:43:58.350Z,7.90
2023-04-17T18:46:32.492Z,7.80
2023-04-17T18:49:00.965Z,7.90
2023-04-17T18:51:32.888Z,7.80
2023-04-17T18:54:00.724Z,7.80
2023-04-17T18:56:28.158Z,7.80
2023-04-17T18:58:55.163Z,7.70
2023-04-17T19:01:23.640Z,7.60
2023-04-17T19:03:52.156Z,7.70
2023-04-17T19:06:20.310Z,7.60
2023-04-17T19:08:48.891Z,7.60
2023-04-17T19:11:18.731Z,7.50
2023-04-17T19:13:45.696Z,7.40
2023-04-17T19:16:12.995Z,7.30
2023-04-17T19:18:40.273Z,7.20
2023-04-17T19:21:09.823Z,7.10
2023-04-17T19:23:38.729Z,6.90
2023-04-17T19:26:09.307Z,6.80
2023-04-17T19:28:36.800Z,6.70
2023-04-17T19:31:04.072Z,6.50
2023-04-17T19:33:32.911Z,6.40
2023-04-17T19:36:10.016Z,6.30
2023-04-17T19:38:37.624Z,6.20
2023-04-17T19:41:19.663Z,6.00
2023-04-17T19:43:51.328Z,5.80
2023-04-17T19:46:19.904Z,5.70
2023-04-17T19:48:49.061Z,5.60
2023-04-17T19:51:16.695Z,5.50
2023-04-17T19:53:48.352Z,5.30
2023-04-17T19:56:18.037Z,5.20
2023-04-17T19:58:46.816Z,5.20
2023-04-17T20:01:17.170Z,5.10
2023-04-17T20:03:48.242Z,5.00
2023-04-17T20:06:17.681Z,4.90
2023-04-17T20:08:45.740Z,4.80
2023-04-17T20:11:13.911Z,4.90
2023-04-17T20:13:41.045Z,5.00
2023-04-17T20:16:10.347Z,5.00
2023-04-17T20:18:39.098Z,5.00
2023-04-17T20:21:06.787Z,5.00
2023-04-17T20:23:35.088Z,5.00
2023-04-17T20:26:03.765Z,5.00
2023-04-17T20:28:31.665Z,5.10
2023-04-17T20:30:58.538Z,5.10
2023-04-17T20:33:28.460Z,5.10
2023-04-17T20:35:56.857Z,5.00
2023-04-17T20:38:24.587Z,5.10
2023-04-17T20:40:54.299Z,5.00
2023-04-17T20:43:21.154Z,5.00
2023-04-17T20:45:51.981Z,5.00
2023-04-17T20:48:24.214Z,4.90
2023-04-17T20:50:51.890Z,4.80
2023-04-17T20:53:20.427Z,4.80
2023-04-17T20:55:48.443Z,4.80
2023-04-17T20:58:17.209Z,4.80
2023-04-17T21:00:58.299Z,4.90
2023-04-17T21:03:34.110Z,4.90
2023-04-17T21:06:02.228Z,4.90
2023-04-17T21:08:29.432Z,4.80
2023-04-17T21:11:03.526Z,4.80
2023-04-17T21:13:31.233Z,4.70
2023-04-17T21:15:58.857Z,4.70
2023-04-17T21:18:28.519Z,4.60
2023-04-17T21:20:55.933Z,4.60
2023-04-17T21:23:25.157Z,4.60
2023-04-17T21:25:53.807Z,4.70
2023-04-17T21:28:22.380Z,4.40
2023-04-17T21:30:49.560Z,4.30
2023-04-17T21:33:17.465Z,4.50
2023-04-17T21:35:44.555Z,4.30
2023-04-17T21:38:14.973Z,4.40
2023-04-17T21:40:50.870Z,4.40
2023-04-17T21:43:19.598Z,4.50
2023-04-17T21:45:51.995Z,4.40
2023-04-17T21:48:21.355Z,4.40
2023-04-17T21:50:51.259Z,4.30
2023-04-17T21:53:18.587Z,4.40
2023-04-17T21:55:45.704Z,4.40
2023-04-17T21:58:15.222Z,4.40
2023-04-17T22:00:45.831Z,4.40
2023-04-17T22:03:15.501Z,4.40
2023-04-17T22:05:42.340Z,4.40
2023-04-17T22:08:09.767Z,4.40
2023-04-17T22:10:36.648Z,4.50
2023-04-17T22:13:03.586Z,4.40
2023-04-17T22:15:31.059Z,4.30
2023-04-17T22:17:58.819Z,4.20
2023-04-17T22:20:25.950Z,4.20
2023-04-17T22:22:53.698Z,4.10
2023-04-17T22:25:23.018Z,4.10
2023-04-17T22:27:50.201Z,4.00
2023-04-17T22:30:17.731Z,4.00
2023-04-17T22:32:47.498Z,3.90
2023-04-17T22:35:14.501Z,4.00
2023-04-17T22:37:41.361Z,3.90
2023-04-17T22:40:08.959Z,3.90
2023-04-17T22:42:36.107Z,3.70
2023-04-17T22:45:09.182Z,3.80
2023-04-17T22:47:36.435Z,3.70
2023-04-17T22:50:06.504Z,3.70
2023-04-17T22:52:33.182Z,3.60
2023-04-17T22:55:02.172Z,3.60
2023-04-17T22:57:29.310Z,3.60
2023-04-17T22:59:56.879Z,3.40
2023-04-17T23:02:23.797Z,3.50
2023-04-17T23:04:50.668Z,3.50
2023-04-17T23:07:17.546Z,3.50
2023-04-17T23:09:45.993Z,3.50
2023-04-17T23:12:17.286Z,3.50
2023-04-17T23:14:45.895Z,3.40
2023-04-17T23:17:13.094Z,3.30
2023-04-17T23:19:40.027Z,3.30
2023-04-17T23:22:07.310Z,3.40
2023-04-17T23:24:35.286Z,3.40
2023-04-17T23:27:02.606Z,3.30
2023-04-17T23:29:29.846Z,3.50
2023-04-17T23:31:56.942Z,3.40
2023-04-17T23:34:27.782Z,3.40
2023-04-17T23:36:54.737Z,3.50
2023-04-17T23:39:24.736Z,3.50
2023-04-17T23:41:51.691Z,3.50
2023-04-17T23:44:24.053Z,3.40
2023-04-17T23:46:51.574Z,3.40
2023-04-17T23:49:20.931Z,3.30
2023-04-17T23:51:48.006Z,3.20
2023-04-17T23:54:15.285Z,3.20
2023-04-17T23:56:43.678Z,3.10
2023-04-17T23:59:12.911Z,3.00
